createdAt,value
2023-03-23T15:57:53.799Z,3.15
2023-03-23T16:02:57.973Z,2.58
2023-03-23T16:05:26.022Z,2.17
2023-03-23T16:07:53.879Z,3.45
2023-03-23T16:10:23.830Z,2.50
2023-03-23T16:12:52.444Z,3.97
2023-03-23T16:15:21.223Z,3.72
2023-03-23T16:17:48.825Z,3.42
2023-03-23T16:20:22.513Z,3.80
2023-03-23T16:22:52.086Z,5.60
2023-03-23T16:25:20.318Z,6.28
2023-03-23T16:27:52.490Z,7.50
2023-03-23T16:30:26.365Z,7.43
2023-03-23T16:32:56.897Z,12.38
2023-03-23T16:35:26.006Z,12.88
2023-03-23T16:38:08.458Z,7.90
2023-03-23T16:40:37.990Z,8.07
2023-03-23T16:43:08.340Z,8.60
2023-03-23T16:45:41.607Z,6.35
2023-03-23T16:48:12.555Z,6.28
2023-03-23T16:50:41.597Z,10.15
2023-03-23T16:53:09.995Z,13.27
2023-03-23T16:55:38.678Z,13.60
2023-03-23T16:58:16.330Z,13.00
2023-03-23T17:00:49.015Z,17.42
2023-03-23T17:03:18.722Z,16.95
2023-03-23T17:05:51.461Z,22.05
2023-03-23T17:08:21.166Z,36.63
2023-03-23T17:10:49.150Z,28.65
2023-03-23T17:13:17.602Z,33.50
2023-03-23T17:15:47.110Z,50.08
2023-03-23T17:18:16.688Z,35.35
2023-03-23T17:20:44.668Z,38.25
2023-03-23T17:23:12.687Z,36.58
2023-03-23T17:25:40.728Z,41.28
2023-03-23T17:28:08.761Z,41.30
2023-03-23T17:30:39.474Z,29.10
2023-03-23T17:33:07.753Z,21.95
2023-03-23T17:35:35.813Z,20.70
2023-03-23T17:38:03.745Z,17.92
2023-03-23T17:40:32.922Z,18.48
2023-03-23T17:43:01.332Z,16.38
2023-03-23T17:45:29.257Z,16.67
2023-03-23T17:47:57.549Z,17.13
2023-03-23T17:50:26.824Z,15.48
2023-03-23T17:52:57.266Z,17.35
2023-03-23T17:55:25.590Z,14.73
2023-03-23T17:57:53.712Z,11.57
2023-03-23T18:00:22.683Z,11.52
2023-03-23T18:02:52.125Z,13.07
2023-03-23T18:05:20.231Z,13.95
2023-03-23T18:07:48.746Z,14.80
2023-03-23T18:10:17.061Z,11.13
2023-03-23T18:12:45.637Z,10.27
2023-03-23T18:15:13.863Z,11.00
2023-03-23T18:17:44.217Z,16.38
2023-03-23T18:20:13.657Z,15.32
2023-03-23T18:22:42.350Z,12.98
2023-03-23T18:25:12.034Z,10.98
2023-03-23T18:27:40.781Z,11.80
2023-03-23T18:30:10.040Z,43.33
2023-03-23T18:32:40.357Z,58.90
2023-03-23T18:35:14.635Z,98.38
2023-03-23T18:37:44.386Z,77.32
2023-03-23T18:40:12.889Z,60.42
2023-03-23T18:42:45.473Z,60.28
2023-03-23T18:45:14.313Z,43.63
2023-03-23T18:47:44.208Z,45.40
2023-03-23T18:50:13.158Z,51.88
2023-03-23T18:52:42.756Z,48.88
2023-03-23T18:55:13.078Z,41.08
2023-03-23T18:57:44.452Z,34.50
2023-03-23T19:00:14.107Z,31.10
2023-03-23T19:02:43.240Z,21.85
2023-03-23T19:05:12.976Z,19.38
2023-03-23T19:07:53.860Z,16.55
2023-03-23T19:10:23.555Z,17.80
2023-03-23T19:12:51.713Z,24.63
2023-03-23T19:15:21.412Z,27.38
2023-03-23T19:17:56.620Z,30.55
2023-03-23T19:21:00.428Z,25.00
2023-03-23T19:23:15.877Z,22.88
2023-03-23T19:25:46.627Z,20.42
2023-03-23T19:30:55.478Z,17.45
2023-03-23T19:33:31.366Z,13.80
2023-03-23T19:38:34.554Z,18.63
2023-03-23T19:41:06.559Z,22.90
2023-03-23T19:43:36.450Z,22.65
2023-03-23T19:46:06.951Z,25.20
2023-03-23T19:48:36.214Z,25.60
2023-03-23T19:51:07.419Z,22.50
2023-03-23T19:53:37.330Z,19.83
2023-03-23T19:56:11.455Z,19.40
2023-03-23T19:58:40.687Z,31.65
2023-03-23T20:01:10.470Z,34.72
2023-03-23T20:03:39.368Z,34.13
2023-03-23T20:06:13.013Z,24.38
2023-03-23T20:08:43.742Z,21.20
2023-03-23T20:11:15.318Z,21.80
2023-03-23T20:13:44.859Z,27.92
2023-03-23T20:16:13.809Z,21.52
2023-03-23T20:18:44.745Z,20.63
2023-03-23T20:21:19.728Z,19.48
2023-03-23T20:23:49.857Z,19.55
2023-03-23T20:26:27.300Z,17.33
2023-03-23T20:28:56.169Z,16.95
2023-03-23T20:31:28.528Z,14.65
2023-03-23T20:34:03.192Z,12.70
2023-03-23T20:36:43.053Z,7.00
2023-03-23T20:39:21.689Z,9.07
2023-03-23T20:41:51.513Z,12.05
2023-03-23T20:44:23.716Z,9.10
2023-03-23T20:46:56.146Z,4.82
2023-03-23T20:49:27.162Z,6.13
2023-03-23T20:51:55.854Z,7.30
2023-03-23T20:54:25.738Z,7.03
2023-03-23T20:56:56.297Z,7.03
2023-03-23T20:59:27.728Z,7.18
2023-03-23T21:01:57.014Z,9.80
2023-03-23T21:04:28.341Z,11.60
2023-03-23T21:06:59.255Z,9.33
2023-03-23T21:09:27.983Z,13.02
2023-03-23T21:11:57.343Z,15.30
2023-03-23T21:14:27.373Z,15.00
2023-03-23T21:16:58.197Z,14.70
2023-03-23T21:19:30.502Z,15.98
2023-03-23T21:22:00.399Z,15.10
2023-03-23T21:24:31.628Z,12.10
2023-03-23T21:27:02.905Z,10.55
2023-03-23T21:29:31.158Z,11.50
2023-03-23T21:34:30.647Z,13.52
2023-03-23T21:36:58.546Z,14.82
2023-03-23T21:39:26.513Z,12.50
2023-03-23T21:41:54.252Z,12.40
2023-03-23T21:44:22.222Z,9.77
2023-03-23T21:46:52.386Z,12.35
2023-03-23T21:49:20.507Z,11.95
2023-03-23T21:51:49.594Z,15.82
2023-03-23T21:54:17.368Z,16.83
2023-03-23T21:56:45.075Z,18.92
2023-03-23T21:59:12.936Z,20.23
2023-03-23T22:01:40.679Z,19.25
2023-03-23T22:04:08.796Z,18.52
2023-03-23T22:06:36.518Z,25.55
2023-03-23T22:09:07.614Z,20.33
2023-03-23T22:11:36.386Z,19.30
2023-03-23T22:14:05.395Z,22.92
2023-03-23T22:16:33.783Z,32.38
2023-03-23T22:19:02.295Z,31.70
2023-03-23T22:21:30.406Z,31.27
2023-03-23T22:24:00.403Z,23.05
2023-03-23T22:26:29.214Z,21.85
2023-03-23T22:28:57.732Z,25.52
2023-03-23T22:31:28.760Z,27.25
2023-03-23T22:33:57.418Z,27.15
2023-03-23T22:36:26.842Z,23.00
2023-03-23T22:38:55.713Z,19.65
2023-03-23T22:41:30.260Z,20.48
2023-03-23T22:43:58.036Z,19.25
2023-03-23T22:46:25.782Z,16.08
2023-03-23T22:48:53.919Z,14.45
2023-03-23T22:51:22.519Z,13.93
2023-03-23T22:53:50.488Z,19.80
2023-03-23T22:56:18.761Z,21.88
2023-03-23T22:58:46.470Z,20.30
2023-03-23T23:01:17.509Z,20.38
2023-03-23T23:03:45.597Z,14.68
2023-03-23T23:06:14.580Z,15.20
2023-03-23T23:08:42.923Z,11.57
2023-03-23T23:11:13.357Z,11.50
2023-03-23T23:13:41.798Z,10.02
2023-03-23T23:16:11.325Z,11.13
2023-03-23T23:18:40.746Z,20.60
2023-03-23T23:21:12.946Z,29.77
2023-03-23T23:23:41.303Z,40.75
2023-03-23T23:26:09.680Z,29.75
2023-03-23T23:28:37.372Z,30.13
2023-03-23T23:31:06.485Z,20.42
2023-03-23T23:33:34.140Z,14.85
2023-03-23T23:36:02.915Z,24.95
2023-03-23T23:38:30.579Z,23.73
2023-03-23T23:40:58.522Z,25.10
2023-03-23T23:43:26.212Z,20.63
2023-03-23T23:45:54.131Z,17.13
2023-03-23T23:48:22.867Z,19.80
2023-03-23T23:50:51.686Z,12.88
2023-03-23T23:53:23.175Z,10.48
2023-03-23T23:55:51.000Z,10.07
2023-03-23T23:58:19.720Z,7.75
